Forside
METAR-TAF:

METAR-TAF

Lufthavne :

Millington, Tennessee, USA

Breddekreds: 35-21-24N, længdekreds: 089-52-13W, højde: 98 m

Aktuelle vejr

Denne rapport blev lavet for 44 minutter siden, kl. 22:50 UTC
Vind 5 kt fra nordnordvest
Temperatur -1°C
Fugtighed 93%
Tryk 1025 hPa
Sigt: 4.8 km
Brudte skyer i en højde af 600 ft
Overskyet i en højde af 1200 ft
let sne

METAR: KNQA 142250Z 34005KT 3SM -SN BKN006 OVC012 M01/M02 A3027

Tid: 17:34 (23:34 UTC)


TAF: fraværende

Vejrobservationer og prognoser fra mere end 4000 lufthavne (METAR og TAF).

De gule og røde prikker repræsenterer de meteorologiske stationer.

Flyt musen over at se navnet på stationen.

Så klik over at se vejr observationer og prognoser.

At skifte det kort: Klik på de grønne knapper med et sort kors for at zoome ind; på den grønne knap med en bindestreg for at zoome ud; eller på de grønne pile for tilstødende kort.


METAR-TAF: